Decoded Metar for KCDC (CEDAR CITY in UT, USA) (IATA:CDC) | Meteo·Mobile Aviation Weather
aviador You're here:

KCDC Decoded Metar

CEDAR CITY in UT, USA
Report Time2018-10-19 19:53:00
UTC Time2018-10-19 20:53:49
Flight Rules vfr VFR
WindCalm
Visibility9999 m
Phenomena:N/A
Clouds:N/A
Expected CloudBase > 6,800 ft AGL from Temp-Dew spread
CeilingNone
Temp16°C (ISA +12)
Dew Point-1°C (31% RH)
AAT13.9°C
QNH1027 hPa
Density Alt6,654 ft
Elevation5,623 ft
Report Wrong Elevation
Raw Report
KCDC 191953Z AUTO 00000KT 10SM CLR 16/M01 A3033 RMK AO2 SLP248
T01561006=

Extra information for KCDC:More info

Metar Taf Metar & Taf Last 4 Metars F.Rules Stats Wind Profile Meteogram Temp Stats Airport Information Weather charts Add Link Nearby VenuesMetar ALERT Operation Metar Decoded Social comments

AIRNAV info for KCDC